Wahoo, Nebraska
Current Conditions -  °F | °C
As of 3:35 AM on Monday 20 Oct 2014 (Local Time) from KAHQ Reporting Station
Clear Clear  
Wind Chill: 53°   Ceiling: Unl
Heat Index: 53°   Visibility: 10mi
Dew Point: 44°   Wind: 6mph
Humidity: 72%   Direction: 310°NW
Pressure: 29.98"   Gusts: NA
Location:  41.21°N, 96.62°W
Report Text: KAHQ 200835Z AUTO 31005KT 10SM CLR 12/07 A2998 RMK AO2 T01150066
Loading
Personal Weather Stations






























Interactive Weather Map
Tropical Storm Tracking
New forecast layout! Learn more

10-Day Weather Forecast

Advertisements
Track Severe Weather on mobile